Time;durP1;ratioP1;P1;durP2;ratioP2;P2;SDS_P1;SDS_P2;PMS_P1;PMS_P2;Temp;Humidity;BMP_temperature;BMP_pressure;BME280_temperature;BME280_humidity;BME280_pressure;Samples;Min_cycle;Max_cycle;Signal;HPM_P1;HPM_P2
2023/07/07 00:00:48;;;;;;;3.90;3.60;;;20.20;41.30;;;;;;20810;6810;117082;-75
2023/07/07 00:03:13;;;;;;;4.40;4.10;;;19.90;41.50;;;;;;20815;6811;121109;-74
2023/07/07 00:05:39;;;;;;;4.30;3.90;;;19.70;41.80;;;;;;20787;6811;117124;-74
2023/07/07 00:08:05;;;;;;;4.60;4.30;;;19.60;41.90;;;;;;20601;6812;277479;-73
2023/07/07 00:10:30;;;;;;;104.20;87.73;;;19.80;42.60;;;;;;20615;6812;337435;-73
2023/07/07 00:12:56;;;;;;;97.53;72.00;;;20.20;42.10;;;;;;20825;6812;117508;-75
2023/07/07 00:15:21;;;;;;;63.13;45.90;;;20.10;41.80;;;;;;20741;6812;118011;-74
2023/07/07 00:17:47;;;;;;;39.00;29.80;;;19.80;42.00;;;;;;20807;6812;118056;-74
2023/07/07 00:20:14;;;;;;;27.30;21.45;;;19.60;42.30;;;;;;20758;6812;118619;-74
2023/07/07 00:22:38;;;;;;;18.95;16.95;;;19.50;42.50;;;;;;20562;6812;279373;-74
2023/07/07 00:25:04;;;;;;;16.25;14.55;;;19.70;42.70;;;;;;20789;6812;117605;-73
2023/07/07 00:27:29;;;;;;;12.90;11.70;;;19.80;42.50;;;;;;20558;6812;306737;-74
2023/07/07 00:29:55;;;;;;;9.98;8.98;;;20.00;42.50;;;;;;20571;6812;310776;-74
2023/07/07 00:32:22;;;;;;;6.77;6.27;;;20.30;42.00;;;;;;20791;6812;117620;-73
2023/07/07 00:34:47;;;;;;;7.27;6.67;;;20.20;41.80;;;;;;20587;6812;306560;-74
2023/07/07 00:37:13;;;;;;;6.10;5.60;;;20.10;41.70;;;;;;20818;6812;118158;-73
2023/07/07 00:39:40;;;;;;;5.77;5.20;;;20.10;41.70;;;;;;20798;6812;117575;-74
2023/07/07 00:42:10;;;;;;;5.97;5.30;;;19.80;42.50;;;;;;20812;6812;117149;-73
2023/07/07 00:45:06;;;;;;;5.50;5.10;;;19.60;42.30;;;;;;20610;6812;277958;-74
2023/07/07 00:47:32;;;;;;;4.60;4.30;;;19.60;42.30;;;;;;20786;6812;117496;-77
2023/07/07 00:49:58;;;;;;;4.40;3.80;;;19.60;42.30;;;;;;20817;6812;117263;-74
2023/07/07 00:52:23;;;;;;;4.70;4.40;;;19.40;42.50;;;;;;20606;6812;312206;-75
2023/07/07 00:54:49;;;;;;;4.95;3.85;;;19.60;42.90;;;;;;20823;6812;123183;-73
2023/07/07 00:57:14;;;;;;;4.50;4.20;;;19.60;42.60;;;;;;20825;6812;117113;-73
2023/07/07 00:59:40;;;;;;;4.03;3.72;;;19.40;42.70;;;;;;20802;6812;119136;-73
2023/07/07 01:02:09;;;;;;;4.37;4.17;;;19.30;42.90;;;;;;20602;6812;285164;-74
2023/07/07 01:04:33;;;;;;;4.70;4.30;;;19.90;42.70;;;;;;20539;6812;309244;-74
2023/07/07 01:06:59;;;;;;;3.93;3.67;;;19.90;42.70;;;;;;20792;6812;117103;-74
2023/07/07 01:09:24;;;;;;;4.90;4.50;;;19.90;42.50;;;;;;20569;6812;336645;-75
2023/07/07 01:11:50;;;;;;;4.97;4.53;;;20.00;42.70;;;;;;20825;6810;117122;-73
2023/07/07 01:14:18;;;;;;;4.57;4.17;;;19.90;42.70;;;;;;20825;6811;116981;-73
2023/07/07 01:17:05;;;;;;;4.50;4.20;;;19.80;43.50;;;;;;20591;6811;307301;-74
2023/07/07 01:20:00;;;;;;;4.43;4.13;;;19.80;43.50;;;;;;20627;6812;119890;-73
2023/07/07 01:22:36;;;;;;;4.90;4.60;;;19.80;43.20;;;;;;19567;6812;350081;-74
2023/07/07 01:25:12;;;;;;;4.00;3.80;;;19.90;43.40;;;;;;20818;6812;117333;-74
2023/07/07 01:27:53;;;;;;;3.97;3.60;;;19.70;43.20;;;;;;20798;6812;121912;-74
2023/07/07 01:30:42;;;;;;;4.60;4.20;;;19.50;43.50;;;;;;20810;6812;117874;-74
2023/07/07 01:33:08;;;;;;;4.60;4.30;;;19.20;43.70;;;;;;20816;6812;117932;-73
2023/07/07 01:35:34;;;;;;;4.33;4.03;;;18.90;43.70;;;;;;20578;6812;282828;-73
2023/07/07 01:37:59;;;;;;;5.20;4.43;;;19.10;44.20;;;;;;20607;6812;282548;-73
2023/07/07 01:40:42;;;;;;;5.30;4.80;;;19.50;43.80;;;;;;20598;6812;302777;-74
2023/07/07 01:43:14;;;;;;;4.67;4.30;;;19.70;43.30;;;;;;20610;6812;281768;-73
2023/07/07 01:45:46;;;;;;;4.90;4.50;;;19.90;42.90;;;;;;20578;6812;315036;-73
2023/07/07 01:48:11;;;;;;;4.77;4.37;;;20.00;42.90;;;;;;20597;6812;313068;-74
2023/07/07 01:50:37;;;;;;;4.60;4.30;;;20.10;42.70;;;;;;20577;6812;288404;-73
2023/07/07 01:53:05;;;;;;;4.60;4.15;;;20.10;42.50;;;;;;20809;6812;117501;-74
2023/07/07 01:55:31;;;;;;;4.60;4.20;;;19.80;42.70;;;;;;20569;6812;278416;-74
2023/07/07 01:57:56;;;;;;;3.97;3.78;;;19.80;43.00;;;;;;20803;6812;117957;-74
2023/07/07 02:00:22;;;;;;;4.07;3.70;;;19.60;43.00;;;;;;20810;6812;118017;-74
2023/07/07 02:02:48;;;;;;;4.15;3.95;;;19.20;43.30;;;;;;20817;6812;117000;-74
2023/07/07 02:05:14;;;;;;;4.00;3.70;;;18.70;43.80;;;;;;20816;6812;117125;-76
2023/07/07 02:07:39;;;;;;;4.83;4.17;;;18.70;43.80;;;;;;20799;6812;120255;-73
2023/07/07 02:10:06;;;;;;;4.47;4.27;;;18.70;44.40;;;;;;20604;6812;344624;-74
2023/07/07 02:12:32;;;;;;;4.85;4.45;;;19.10;44.10;;;;;;20617;6812;314778;-73
2023/07/07 02:14:58;;;;;;;5.00;4.60;;;19.10;44.10;;;;;;20609;6812;285310;-74
2023/07/07 02:17:24;;;;;;;5.70;4.80;;;19.40;43.30;;;;;;20585;6812;308977;-73
2023/07/07 02:19:49;;;;;;;3.90;3.65;;;19.60;43.30;;;;;;20819;6812;117285;-74
2023/07/07 02:22:14;;;;;;;4.40;3.95;;;19.40;43.30;;;;;;20816;6812;117114;-74
2023/07/07 02:24:41;;;;;;;4.45;4.05;;;18.70;44.70;;;;;;20822;6810;116904;-74
2023/07/07 02:27:10;;;;;;;4.80;4.10;;;18.70;44.00;;;;;;20816;6811;116989;-73
2023/07/07 02:29:32;;;;;;;4.77;4.40;;;18.40;45.00;;;;;;20579;6811;312146;-74
2023/07/07 02:31:57;;;;;;;4.37;4.07;;;18.60;44.80;;;;;;20611;6812;281534;-74
2023/07/07 02:34:23;;;;;;;4.75;4.25;;;19.00;44.20;;;;;;20603;6812;308167;-74
2023/07/07 02:36:52;;;;;;;3.97;3.60;;;19.10;43.70;;;;;;20823;6812;121773;-73
2023/07/07 02:39:15;;;;;;;4.60;4.20;;;19.10;43.70;;;;;;20595;6812;307907;-74
2023/07/07 02:41:40;;;;;;;4.20;4.00;;;19.20;43.80;;;;;;20803;6812;117371;-73
2023/07/07 02:44:06;;;;;;;4.15;3.60;;;19.00;43.80;;;;;;20813;6812;117497;-74
2023/07/07 02:46:32;;;;;;;4.78;4.37;;;18.70;44.10;;;;;;20604;6812;311115;-73
2023/07/07 02:48:58;;;;;;;4.45;4.12;;;18.80;44.10;;;;;;20826;6812;117086;-74
2023/07/07 02:51:23;;;;;;;4.50;4.10;;;18.80;44.10;;;;;;20794;6812;133194;-74
2023/07/07 02:53:50;;;;;;;4.53;4.23;;;18.80;44.80;;;;;;20608;6812;306624;-74
2023/07/07 02:56:15;;;;;;;4.60;4.30;;;18.80;44.40;;;;;;20593;6812;309234;-74
2023/07/07 02:58:41;;;;;;;4.63;4.23;;;19.10;44.00;;;;;;20601;6812;311893;-74
2023/07/07 03:01:10;;;;;;;4.60;4.30;;;19.30;43.40;;;;;;20606;6812;308261;-74
2023/07/07 03:03:42;;;;;;;4.62;4.22;;;19.50;43.20;;;;;;20553;6812;277438;-73
2023/07/07 03:06:07;;;;;;;4.78;4.37;;;19.60;42.90;;;;;;20602;6812;306948;-73
2023/07/07 03:08:34;;;;;;;4.20;3.80;;;19.30;43.50;;;;;;20814;6812;117559;-75
2023/07/07 03:10:59;;;;;;;4.53;4.23;;;19.30;43.00;;;;;;20815;6812;116995;-75
2023/07/07 03:13:25;;;;;;;4.70;4.30;;;18.90;43.50;;;;;;20578;6812;337342;-74
2023/07/07 03:15:50;;;;;;;4.97;4.57;;;19.00;44.20;;;;;;20608;6812;277986;-73
2023/07/07 03:18:16;;;;;;;4.27;3.97;;;19.10;43.60;;;;;;20828;6812;120191;-74
2023/07/07 03:20:47;;;;;;;4.50;4.20;;;19.00;43.80;;;;;;20599;6812;306969;-78
2023/07/07 03:23:14;;;;;;;5.07;3.80;;;19.00;44.20;;;;;;20819;6812;117053;-76
2023/07/07 03:25:40;;;;;;;4.50;4.10;;;18.80;44.20;;;;;;20789;6812;117798;-76
2023/07/07 03:28:05;;;;;;;5.73;3.83;;;18.50;44.50;;;;;;20823;6812;123107;-77
2023/07/07 03:30:34;;;;;;;4.22;4.00;;;18.30;44.70;;;;;;20607;6812;277122;-76
2023/07/07 03:32:57;;;;;;;3.90;3.60;;;18.50;44.80;;;;;;20804;6812;117427;-77
2023/07/07 03:35:24;;;;;;;4.57;4.27;;;18.50;44.70;;;;;;20586;6810;306854;-77
2023/07/07 03:37:49;;;;;;;4.23;3.90;;;18.60;44.40;;;;;;20813;6811;117105;-77
2023/07/07 03:40:15;;;;;;;3.92;3.72;;;18.60;44.20;;;;;;20822;6811;116872;-77
2023/07/07 03:42:40;;;;;;;4.00;3.70;;;18.30;44.40;;;;;;20812;6812;118104;-77
2023/07/07 03:45:06;;;;;;;3.90;3.60;;;18.20;44.80;;;;;;20824;6812;116985;-77
2023/07/07 03:47:33;;;;;;;4.30;3.60;;;18.00;44.90;;;;;;20808;6812;117137;-77
2023/07/07 03:49:59;;;;;;;4.20;3.90;;;17.90;45.10;;;;;;20819;6812;118100;-77
2023/07/07 03:52:26;;;;;;;4.23;3.80;;;17.80;45.40;;;;;;20820;6812;117044;-78
2023/07/07 03:54:51;;;;;;;5.45;4.07;;;17.70;45.60;;;;;;20594;6812;280100;-75
2023/07/07 03:57:17;;;;;;;4.60;4.30;;;17.90;46.10;;;;;;20611;6812;305086;-77
2023/07/07 03:59:42;;;;;;;4.37;4.07;;;18.30;45.50;;;;;;20808;6812;117145;-77
2023/07/07 04:02:08;;;;;;;4.57;4.10;;;18.20;45.30;;;;;;20818;6812;117959;-77
2023/07/07 04:04:33;;;;;;;4.40;4.10;;;17.90;45.50;;;;;;20605;6812;336330;-77
2023/07/07 04:06:59;;;;;;;7.50;3.83;;;18.10;45.80;;;;;;20816;6812;117075;-77
2023/07/07 04:09:25;;;;;;;5.55;4.40;;;18.00;45.70;;;;;;20591;6812;280904;-77
2023/07/07 04:11:50;;;;;;;4.87;4.57;;;18.10;46.00;;;;;;20606;6812;277327;-77
2023/07/07 04:14:16;;;;;;;4.30;3.90;;;18.40;45.70;;;;;;20823;6812;117134;-77
2023/07/07 04:16:41;;;;;;;4.78;4.40;;;18.30;45.50;;;;;;20614;6812;277537;-77
2023/07/07 04:19:07;;;;;;;4.75;4.35;;;18.30;45.70;;;;;;20604;6812;291135;-76
2023/07/07 04:21:34;;;;;;;4.90;4.50;;;18.50;45.70;;;;;;20590;6812;307388;-76
2023/07/07 04:23:58;;;;;;;4.90;4.50;;;18.70;45.40;;;;;;20594;6812;277567;-76
2023/07/07 04:26:24;;;;;;;4.57;4.23;;;18.80;45.20;;;;;;20596;6812;311028;-75
2023/07/07 04:28:51;;;;;;;4.37;4.07;;;18.90;44.90;;;;;;20805;6812;117507;-76
2023/07/07 04:31:16;;;;;;;5.07;4.68;;;18.60;44.90;;;;;;20587;6812;282431;-76
2023/07/07 04:33:43;;;;;;;4.17;3.83;;;18.60;45.40;;;;;;20798;6812;117589;-75
2023/07/07 04:36:09;;;;;;;4.73;4.43;;;18.40;45.50;;;;;;20602;6812;309873;-75
2023/07/07 04:38:35;;;;;;;4.65;4.25;;;18.40;45.80;;;;;;20593;6812;337311;-74
2023/07/07 04:41:09;;;;;;;5.68;4.30;;;18.70;45.60;;;;;;20823;6812;67903;-74
2023/07/07 04:43:34;;;;;;;4.03;3.73;;;18.60;45.50;;;;;;20809;6812;117324;-75
2023/07/07 04:45:59;;;;;;;4.60;4.17;;;18.30;45.80;;;;;;20829;6812;117764;-75
2023/07/07 04:48:25;;;;;;;5.10;4.80;;;18.00;46.10;;;;;;20603;6811;306582;-75
2023/07/07 04:50:51;;;;;;;5.18;4.78;;;18.40;46.20;;;;;;20607;6811;277209;-77
2023/07/07 04:53:17;;;;;;;5.17;4.77;;;18.40;46.20;;;;;;20580;6812;280252;-74
2023/07/07 04:55:43;;;;;;;4.60;4.20;;;18.70;45.80;;;;;;20592;6812;338895;-73
2023/07/07 04:58:08;;;;;;;5.10;4.70;;;18.90;46.20;;;;;;20585;6812;280575;-73
2023/07/07 05:00:34;;;;;;;4.75;4.50;;;19.20;45.00;;;;;;20591;6812;336008;-73
2023/07/07 05:02:59;;;;;;;5.20;4.80;;;19.50;44.50;;;;;;20617;6812;285510;-73
2023/07/07 05:05:25;;;;;;;4.60;4.30;;;19.30;44.20;;;;;;20795;6812;117485;-73
2023/07/07 05:07:51;;;;;;;4.87;4.57;;;19.30;44.20;;;;;;20602;6812;307537;-74
2023/07/07 05:10:17;;;;;;;4.90;4.60;;;19.40;44.30;;;;;;20647;6812;311582;-74
2023/07/07 05:12:42;;;;;;;5.33;4.30;;;19.60;44.20;;;;;;20883;6812;116802;-74
2023/07/07 05:15:09;;;;;;;4.03;3.70;;;19.40;44.30;;;;;;20846;6812;116653;-75
2023/07/07 05:17:35;;;;;;;4.93;4.62;;;19.10;44.70;;;;;;20572;6812;300102;-75
2023/07/07 05:20:01;;;;;;;5.30;4.25;;;19.20;44.70;;;;;;20822;6812;117284;-72
2023/07/07 05:22:27;;;;;;;4.83;4.43;;;19.20;44.70;;;;;;20782;6812;117086;-74
2023/07/07 05:24:52;;;;;;;5.03;4.62;;;19.00;44.90;;;;;;20820;6812;116842;-72
2023/07/07 05:27:18;;;;;;;4.10;3.80;;;18.90;45.10;;;;;;20826;6812;117516;-74
2023/07/07 05:29:45;;;;;;;3.87;3.58;;;18.80;46.00;;;;;;20799;6812;119955;-80
2023/07/07 05:32:11;;;;;;;4.43;4.03;;;18.70;45.30;;;;;;20815;6812;116934;-79
2023/07/07 05:34:36;;;;;;;4.07;3.72;;;18.70;45.50;;;;;;20823;6812;117490;-79
2023/07/07 05:37:02;;;;;;;3.95;3.60;;;18.80;45.60;;;;;;20817;6812;117955;-81
2023/07/07 05:39:27;;;;;;;4.10;3.80;;;18.80;45.50;;;;;;20805;6812;117358;-77
2023/07/07 05:41:53;;;;;;;4.12;3.87;;;18.80;45.60;;;;;;20820;6812;121027;-76
2023/07/07 05:44:18;;;;;;;4.87;4.57;;;18.70;45.70;;;;;;20606;6812;312110;-78
2023/07/07 05:46:45;;;;;;;4.68;4.22;;;19.30;46.20;;;;;;20804;6812;117607;-77
2023/07/07 05:49:10;;;;;;;4.30;4.00;;;19.20;45.40;;;;;;20813;6812;117120;-78
2023/07/07 05:51:36;;;;;;;4.05;3.67;;;19.30;45.50;;;;;;20801;6812;117644;-74
2023/07/07 05:54:01;;;;;;;4.30;4.00;;;19.20;45.40;;;;;;20818;6812;117134;-75
2023/07/07 05:56:27;;;;;;;4.80;4.50;;;19.20;45.40;;;;;;20607;6812;277861;-75
2023/07/07 05:58:53;;;;;;;4.87;4.47;;;19.60;45.10;;;;;;20829;6810;120134;-75
2023/07/07 06:01:18;;;;;;;8.63;4.40;;;19.80;44.90;;;;;;20816;6811;117151;-75
2023/07/07 06:03:44;;;;;;;4.95;4.55;;;19.70;44.90;;;;;;20591;6811;278453;-75
2023/07/07 06:06:10;;;;;;;4.82;4.05;;;20.00;44.10;;;;;;20813;6812;117520;-74
2023/07/07 06:08:37;;;;;;;4.80;4.40;;;20.20;44.10;;;;;;20605;6812;306600;-75
2023/07/07 06:11:03;;;;;;;4.60;4.30;;;20.50;43.80;;;;;;20605;6812;293122;-75
2023/07/07 06:13:29;;;;;;;4.83;4.43;;;21.40;42.10;;;;;;20588;6812;320612;-76
2023/07/07 06:15:55;;;;;;;5.57;5.07;;;21.40;42.70;;;;;;20609;6812;336095;-75
2023/07/07 06:18:21;;;;;;;5.07;4.30;;;22.30;43.00;;;;;;20816;6812;117358;-75
2023/07/07 06:20:53;;;;;;;4.65;4.35;;;22.20;42.80;;;;;;20598;6812;296903;-75
2023/07/07 06:23:20;;;;;;;4.90;4.50;;;23.00;41.20;;;;;;20595;6812;336183;-76
2023/07/07 06:25:47;;;;;;;5.53;3.77;;;24.10;39.70;;;;;;20828;6812;117847;-77
2023/07/07 06:28:11;;;;;;;4.40;4.10;;;24.70;40.10;;;;;;20610;6812;336873;-75
2023/07/07 06:30:37;;;;;;;4.53;4.20;;;25.50;37.70;;;;;;20609;6812;307087;-76
2023/07/07 06:33:03;;;;;;;4.78;4.40;;;26.40;36.10;;;;;;20613;6812;278060;-76
2023/07/07 06:35:28;;;;;;;4.17;3.97;;;27.30;34.60;;;;;;20589;6812;278488;-76
2023/07/07 06:37:54;;;;;;;4.60;4.30;;;28.00;33.30;;;;;;20606;6812;307287;-76
2023/07/07 06:40:22;;;;;;;4.57;4.28;;;28.80;33.20;;;;;;20823;6812;117167;-75
2023/07/07 06:42:51;;;;;;;4.03;3.77;;;28.70;33.60;;;;;;20810;6812;117036;-76
2023/07/07 06:45:15;;;;;;;4.40;4.10;;;28.70;33.60;;;;;;20601;6812;278004;-78
2023/07/07 06:47:41;;;;;;;3.75;3.45;;;29.40;32.50;;;;;;20816;6812;117243;-78
2023/07/07 06:50:07;;;;;;;4.30;3.90;;;29.30;32.30;;;;;;20816;6812;117333;-77
2023/07/07 06:52:32;;;;;;;4.07;3.77;;;29.40;32.70;;;;;;20813;6812;117020;-76
2023/07/07 06:54:58;;;;;;;4.23;3.93;;;29.50;32.70;;;;;;20814;6812;116962;-77
2023/07/07 06:57:23;;;;;;;4.37;4.00;;;29.60;32.70;;;;;;20584;6812;303977;-78
2023/07/07 06:59:49;;;;;;;4.25;3.95;;;30.10;30.30;;;;;;20809;6812;117224;-76
2023/07/07 07:02:15;;;;;;;4.30;4.00;;;30.40;30.90;;;;;;20605;6812;277896;-75
2023/07/07 07:04:40;;;;;;;4.90;4.07;;;30.80;29.50;;;;;;20821;6812;117108;-74
2023/07/07 07:07:06;;;;;;;4.30;4.10;;;31.00;29.90;;;;;;20822;6812;117389;-74
2023/07/07 07:09:32;;;;;;;4.50;4.10;;;31.20;29.10;;;;;;20584;6810;281493;-75
2023/07/07 07:11:57;;;;;;;4.87;4.40;;;31.20;29.10;;;;;;20599;6811;311557;-75
2023/07/07 07:14:23;;;;;;;4.77;4.47;;;31.60;29.40;;;;;;20824;6811;116930;-75
2023/07/07 07:16:49;;;;;;;5.22;4.80;;;31.60;29.20;;;;;;20607;6812;277988;-76
2023/07/07 07:19:14;;;;;;;4.78;4.47;;;31.70;28.50;;;;;;20595;6812;311678;-76
2023/07/07 07:21:41;;;;;;;4.62;4.28;;;31.90;28.40;;;;;;20808;6812;123113;-75
2023/07/07 07:24:05;;;;;;;5.70;4.90;;;31.90;28.70;;;;;;20602;6812;311524;-75
2023/07/07 07:26:31;;;;;;;5.20;3.92;;;31.90;28.70;;;;;;20827;6812;122833;-75
2023/07/07 07:28:56;;;;;;;5.00;4.60;;;31.70;28.80;;;;;;20824;6812;119684;-75
2023/07/07 07:31:22;;;;;;;4.93;4.62;;;31.30;29.00;;;;;;20584;6812;307001;-75
2023/07/07 07:33:48;;;;;;;5.35;4.95;;;31.30;28.40;;;;;;20608;6812;307374;-77
2023/07/07 07:36:13;;;;;;;5.20;4.90;;;31.40;28.50;;;;;;20596;6812;306562;-76
2023/07/07 07:38:39;;;;;;;5.07;4.57;;;31.50;28.60;;;;;;20829;6812;116982;-75
2023/07/07 07:41:04;;;;;;;5.30;4.90;;;31.40;28.70;;;;;;20606;6812;307475;-76
2023/07/07 07:43:30;;;;;;;4.60;4.30;;;31.30;28.70;;;;;;20804;6812;117045;-75
2023/07/07 07:45:55;;;;;;;5.57;5.12;;;31.10;28.80;;;;;;20614;6812;312888;-76
2023/07/07 07:48:21;;;;;;;5.43;4.87;;;31.10;29.10;;;;;;20604;6812;310520;-76
2023/07/07 07:50:47;;;;;;;5.18;4.80;;;31.00;29.20;;;;;;20828;6812;117056;-75
2023/07/07 07:53:13;;;;;;;4.73;4.43;;;31.00;29.20;;;;;;20817;6812;117610;-75
2023/07/07 07:55:38;;;;;;;6.10;5.67;;;30.70;29.50;;;;;;20573;6812;307092;-75
2023/07/07 07:58:04;;;;;;;5.82;5.43;;;30.70;29.80;;;;;;20617;6812;306992;-75
2023/07/07 08:00:30;;;;;;;4.80;4.50;;;30.80;29.60;;;;;;20826;6812;119767;-75
2023/07/07 08:02:56;;;;;;;5.90;5.37;;;30.80;29.50;;;;;;20615;6812;281265;-77
2023/07/07 08:05:21;;;;;;;5.13;4.70;;;30.90;29.20;;;;;;20597;6812;278049;-76
2023/07/07 08:07:47;;;;;;;5.30;4.80;;;31.00;29.40;;;;;;20623;6812;281864;-76
2023/07/07 08:10:14;;;;;;;5.00;4.60;;;31.30;29.60;;;;;;20874;6812;116163;-75
2023/07/07 08:12:40;;;;;;;5.30;4.80;;;31.20;29.60;;;;;;20682;6812;277039;-75
2023/07/07 08:15:05;;;;;;;5.30;4.87;;;31.20;29.40;;;;;;20676;6812;336853;-76
2023/07/07 08:17:32;;;;;;;5.00;4.50;;;31.50;29.60;;;;;;20798;6812;117786;-74
2023/07/07 08:19:56;;;;;;;4.70;4.37;;;31.40;29.70;;;;;;20599;6812;306987;-75
2023/07/07 08:22:23;;;;;;;5.40;4.60;;;31.50;29.50;;;;;;20614;6810;306380;-75
2023/07/07 08:24:48;;;;;;;4.53;4.30;;;31.80;29.00;;;;;;20814;6811;117730;-76
2023/07/07 08:27:13;;;;;;;4.77;4.37;;;31.70;29.20;;;;;;20793;6811;117057;-75
2023/07/07 08:29:40;;;;;;;4.80;4.60;;;31.60;29.40;;;;;;20585;6812;277924;-75
2023/07/07 08:32:06;;;;;;;4.87;4.23;;;31.70;29.30;;;;;;20817;6812;117932;-74
2023/07/07 08:34:31;;;;;;;4.43;4.13;;;31.80;29.30;;;;;;20823;6812;123198;-75
2023/07/07 08:36:59;;;;;;;6.68;4.85;;;31.70;29.40;;;;;;20606;6812;307020;-74
2023/07/07 08:39:22;;;;;;;5.28;4.80;;;32.00;29.40;;;;;;20803;6812;121037;-76
2023/07/07 08:41:48;;;;;;;4.70;4.40;;;32.10;29.20;;;;;;20820;6812;117695;-76
2023/07/07 08:44:13;;;;;;;5.45;5.05;;;32.10;29.30;;;;;;20596;6812;278546;-76
2023/07/07 08:46:39;;;;;;;5.37;5.00;;;32.40;28.80;;;;;;20595;6812;309689;-75
2023/07/07 08:49:04;;;;;;;4.60;4.33;;;32.70;28.10;;;;;;20776;6812;117739;-75
2023/07/07 08:51:31;;;;;;;5.62;5.12;;;32.70;28.60;;;;;;20568;6812;307471;-76
2023/07/07 08:54:06;;;;;;;5.53;5.10;;;32.70;28.60;;;;;;20584;6812;311954;-76
2023/07/07 08:56:35;;;;;;;4.80;4.50;;;32.90;28.20;;;;;;20813;6812;117301;-76
2023/07/07 08:59:20;;;;;;;5.47;5.07;;;32.90;28.40;;;;;;20576;6812;281984;-75
2023/07/07 09:01:47;;;;;;;5.53;5.03;;;32.90;28.50;;;;;;20821;6812;117008;-76
2023/07/07 09:04:34;;;;;;;4.97;4.67;;;32.70;28.40;;;;;;20791;6812;119036;-76
2023/07/07 09:07:09;;;;;;;4.77;4.40;;;32.60;28.70;;;;;;20815;6812;118621;-75
2023/07/07 09:09:45;;;;;;;5.53;5.07;;;32.50;28.70;;;;;;20792;6812;117072;-76
2023/07/07 09:12:36;;;;;;;5.40;4.87;;;32.40;28.80;;;;;;20786;6812;117192;-76
2023/07/07 09:15:00;;;;;;;5.90;5.00;;;32.40;29.10;;;;;;20816;6812;117388;-75
2023/07/07 09:17:26;;;;;;;5.03;4.63;;;32.40;29.10;;;;;;20790;6812;119759;-75
2023/07/07 09:19:51;;;;;;;5.80;5.30;;;32.40;29.10;;;;;;20586;6812;312395;-74
2023/07/07 09:22:23;;;;;;;5.83;5.43;;;32.70;27.90;;;;;;20824;6812;123046;-75
2023/07/07 09:24:58;;;;;;;6.55;6.07;;;32.90;27.20;;;;;;20593;6812;317123;-74
2023/07/07 09:27:27;;;;;;;6.87;6.37;;;33.10;25.20;;;;;;20577;6812;276849;-76
2023/07/07 09:29:50;;;;;;;6.97;6.50;;;33.50;24.30;;;;;;20511;6812;307837;-75
2023/07/07 09:32:16;;;;;;;6.73;6.10;;;33.70;24.70;;;;;;20800;6812;117264;-73
2023/07/07 09:34:42;;;;;;;5.90;5.40;;;33.70;24.90;;;;;;20806;6810;119106;-75
2023/07/07 09:37:34;;;;;;;6.43;5.83;;;33.40;25.50;;;;;;20821;6811;117111;-74
2023/07/07 09:40:20;;;;;;;7.00;6.50;;;33.10;25.80;;;;;;20573;6812;292435;-75
2023/07/07 09:43:22;;;;;;;6.57;6.07;;;33.30;25.00;;;;;;19729;7158;122146;-74
2023/07/07 09:46:05;;;;;;;6.73;6.13;;;33.20;25.60;;;;;;20727;6827;117273;-75
2023/07/07 09:48:33;;;;;;;6.80;6.30;;;33.10;25.30;;;;;;20009;6816;119929;-75
2023/07/07 09:51:00;;;;;;;7.28;6.68;;;33.00;25.50;;;;;;20551;6826;337234;-75
2023/07/07 09:53:32;;;;;;;6.73;6.03;;;33.10;25.50;;;;;;20672;6827;117288;-75
2023/07/07 09:56:00;;;;;;;6.10;5.70;;;33.10;25.60;;;;;;20736;6827;117470;-76
2023/07/07 09:58:39;;;;;;;5.80;5.40;;;33.00;25.80;;;;;;20727;6827;117245;-76
2023/07/07 10:01:05;;;;;;;7.57;6.87;;;32.90;26.00;;;;;;20447;6827;312392;-77
2023/07/07 10:03:38;;;;;;;7.13;6.57;;;33.10;24.90;;;;;;20737;6816;118350;-77
2023/07/07 10:06:15;;;;;;;7.70;7.12;;;33.10;25.20;;;;;;20503;6827;294581;-76
2023/07/07 10:08:40;;;;;;;6.87;6.23;;;33.40;24.60;;;;;;20476;6829;117894;-77
2023/07/07 10:11:26;;;;;;;7.63;7.07;;;33.60;24.70;;;;;;20512;6827;307249;-77
2023/07/07 10:13:53;;;;;;;7.13;6.63;;;33.60;24.70;;;;;;20584;6812;277088;-76
2023/07/07 10:16:29;;;;;;;6.67;6.27;;;34.10;24.10;;;;;;20737;6829;117231;-77
2023/07/07 10:18:55;;;;;;;7.53;6.93;;;34.20;24.10;;;;;;20525;6827;306738;-76
2023/07/07 10:21:20;;;;;;;7.20;6.53;;;34.30;23.70;;;;;;20710;6812;117353;-76
2023/07/07 10:23:46;;;;;;;7.47;6.87;;;34.30;23.80;;;;;;20617;6829;117633;-77
2023/07/07 10:26:12;;;;;;;7.77;7.27;;;34.10;23.70;;;;;;20529;6827;310383;-74
2023/07/07 10:28:37;;;;;;;7.17;6.77;;;34.20;23.30;;;;;;20793;6812;116961;-74
2023/07/07 10:31:03;;;;;;;7.80;7.17;;;34.20;23.60;;;;;;20728;6829;119740;-74
2023/07/07 10:33:29;;;;;;;6.37;5.87;;;34.20;24.10;;;;;;20731;6827;117704;-75
2023/07/07 10:35:54;;;;;;;7.03;6.50;;;34.20;24.30;;;;;;20752;6827;117432;-75
2023/07/07 10:38:21;;;;;;;7.95;7.35;;;34.10;24.10;;;;;;20563;6816;305143;-78
2023/07/07 10:40:48;;;;;;;8.40;7.70;;;34.40;23.30;;;;;;20527;6827;279492;-74
2023/07/07 10:43:12;;;;;;;7.37;6.77;;;34.80;22.40;;;;;;20778;6816;119338;-74
2023/07/07 10:45:38;;;;;;;9.60;8.80;;;34.90;22.70;;;;;;20515;6825;277570;-72
2023/07/07 10:48:10;;;;;;;8.47;7.80;;;34.90;22.60;;;;;;20740;6826;117348;-73
2023/07/07 10:50:35;;;;;;;8.90;8.23;;;34.90;22.50;;;;;;20728;6826;119258;-73
2023/07/07 10:53:21;;;;;;;9.37;8.70;;;34.60;22.30;;;;;;20528;6827;302168;-72
2023/07/07 10:55:56;;;;;;;9.43;8.63;;;34.60;22.30;;;;;;20792;6816;117296;-74
2023/07/07 10:58:29;;;;;;;9.33;8.47;;;34.60;22.40;;;;;;20757;6827;117492;-74
2023/07/07 11:01:25;;;;;;;8.97;8.27;;;34.50;22.40;;;;;;20798;6816;119112;-74
2023/07/07 11:03:54;;;;;;;9.27;8.67;;;34.40;22.20;;;;;;20609;6812;278653;-73
2023/07/07 11:06:42;;;;;;;9.00;8.30;;;34.60;21.90;;;;;;20570;6812;309342;-73
2023/07/07 11:09:11;;;;;;;9.50;8.70;;;34.80;21.20;;;;;;20606;6812;306988;-74
2023/07/07 11:12:01;;;;;;;9.83;8.93;;;35.10;20.70;;;;;;20548;6812;278532;-74
2023/07/07 11:14:25;;;;;;;9.07;8.20;;;35.10;20.90;;;;;;20791;6812;116167;-72
2023/07/07 11:17:11;;;;;;;8.37;7.57;;;34.90;21.00;;;;;;20780;6812;116969;-73
2023/07/07 11:19:47;;;;;;;8.53;7.57;;;34.70;21.10;;;;;;20769;6812;117211;-73
2023/07/07 11:22:26;;;;;;;8.10;7.23;;;34.40;21.10;;;;;;20799;6812;117528;-74
2023/07/07 11:24:54;;;;;;;8.77;8.00;;;34.20;21.20;;;;;;20595;6812;307501;-72
2023/07/07 11:27:26;;;;;;;8.40;7.70;;;34.30;21.40;;;;;;20573;6812;313581;-72
2023/07/07 11:29:55;;;;;;;9.00;7.37;;;34.60;22.10;;;;;;20786;6812;122980;-73
2023/07/07 11:32:27;;;;;;;8.47;7.77;;;34.50;21.90;;;;;;20566;6812;279115;-73
2023/07/07 11:35:00;;;;;;;7.63;7.00;;;34.50;22.00;;;;;;20774;6812;117090;-73
2023/07/07 11:37:36;;;;;;;8.13;7.43;;;34.30;22.90;;;;;;20783;6812;146917;-74
2023/07/07 11:40:05;;;;;;;7.73;7.03;;;34.30;22.30;;;;;;20718;6812;117306;-73
2023/07/07 11:42:50;;;;;;;7.53;6.93;;;34.10;22.50;;;;;;20773;6812;117006;-73
2023/07/07 11:45:32;;;;;;;7.70;7.00;;;34.00;22.60;;;;;;20763;6812;117326;-73
2023/07/07 11:48:17;;;;;;;6.97;6.47;;;33.90;22.40;;;;;;20794;6812;116986;-73
2023/07/07 11:50:49;;;;;;;7.17;6.60;;;33.80;22.70;;;;;;20797;6812;121047;-72
2023/07/07 11:53:25;;;;;;;8.02;7.32;;;33.80;22.60;;;;;;20532;6812;306816;-72
2023/07/07 11:56:07;;;;;;;7.83;7.23;;;34.20;22.10;;;;;;20492;6810;117165;-73
2023/07/07 11:58:43;;;;;;;8.40;7.80;;;34.40;21.60;;;;;;20553;6811;320277;-72
2023/07/07 12:01:13;;;;;;;8.30;7.50;;;34.30;21.50;;;;;;20541;6811;311274;-74
2023/07/07 12:03:51;;;;;;;7.40;6.80;;;34.70;22.00;;;;;;20751;6812;120838;-72
2023/07/07 12:06:37;;;;;;;7.95;7.35;;;34.70;22.00;;;;;;20567;6812;306983;-71
2023/07/07 12:09:05;;;;;;;7.07;6.67;;;34.80;20.50;;;;;;20783;6812;117056;-72
2023/07/07 12:11:30;;;;;;;10.10;7.67;;;34.70;21.00;;;;;;20757;6812;117346;-72
2023/07/07 12:13:59;;;;;;;8.13;7.53;;;34.50;21.40;;;;;;20577;6812;278219;-72
2023/07/07 12:16:27;;;;;;;8.23;7.53;;;34.70;21.00;;;;;;20578;6812;307913;-72
2023/07/07 12:18:55;;;;;;;8.00;7.40;;;34.80;20.90;;;;;;20560;6812;336799;-72
2023/07/07 12:21:20;;;;;;;8.13;7.50;;;34.90;20.40;;;;;;20569;6812;278104;-72
2023/07/07 12:23:58;;;;;;;7.50;6.90;;;35.00;19.70;;;;;;20783;6812;117134;-72
2023/07/07 12:26:27;;;;;;;7.60;7.10;;;34.90;20.20;;;;;;20558;6812;278316;-72
2023/07/07 12:28:56;;;;;;;7.70;7.10;;;34.80;20.50;;;;;;20569;6812;277711;-72
2023/07/07 12:31:22;;;;;;;8.07;7.27;;;35.10;20.20;;;;;;20506;6812;279872;-72
2023/07/07 12:33:51;;;;;;;6.93;6.40;;;35.10;19.50;;;;;;20774;6812;117264;-72
2023/07/07 12:36:16;;;;;;;6.93;6.43;;;34.90;19.80;;;;;;20791;6812;123252;-72
2023/07/07 12:38:39;;;;;;;6.80;6.30;;;34.60;20.40;;;;;;20775;6812;117003;-72
2023/07/07 12:41:11;;;;;;;7.00;6.37;;;34.40;20.70;;;;;;20792;6812;119672;-71